createdAt,value
2022-09-12T00:00:12.674Z,94066.13
2022-09-12T00:01:35.708Z,94062.86
2022-09-12T00:02:38.825Z,94062.48
2022-09-12T00:03:42.020Z,94064.17
2022-09-12T00:04:45.417Z,94059.52
2022-09-12T00:05:48.426Z,94059.32
2022-09-12T00:06:51.410Z,94055.88
2022-09-12T00:07:54.701Z,94058.52
2022-09-12T00:09:04.493Z,94059.51
2022-09-12T00:10:08.469Z,94058.30
2022-09-12T00:11:13.698Z,94057.55
2022-09-12T00:12:16.677Z,94055.12
2022-09-12T00:13:19.770Z,94055.97
2022-09-12T00:14:22.815Z,94053.00
2022-09-12T00:15:25.768Z,94050.42
2022-09-12T00:16:31.452Z,94052.16
2022-09-12T00:17:35.526Z,94049.58
2022-09-12T00:18:38.615Z,94052.10
2022-09-12T00:19:41.666Z,94055.73
2022-09-12T00:20:46.524Z,94051.35
2022-09-12T00:21:49.836Z,94051.58
2022-09-12T00:22:52.784Z,94050.68
2022-09-12T00:23:56.045Z,94050.25
2022-09-12T00:25:02.582Z,94047.70
2022-09-12T00:26:07.310Z,94049.13
2022-09-12T00:27:10.477Z,94045.81
2022-09-12T00:28:15.318Z,94044.91
2022-09-12T00:29:21.015Z,94046.60
2022-09-12T00:30:24.175Z,94046.40
2022-09-12T00:31:28.280Z,94044.34
2022-09-12T00:32:31.630Z,94046.24
2022-09-12T00:33:36.013Z,94044.88
2022-09-12T00:34:39.586Z,94045.09
2022-09-12T00:35:49.067Z,94041.92
2022-09-12T00:36:52.240Z,94043.08
2022-09-12T00:37:55.860Z,94045.20
2022-09-12T00:38:59.462Z,94044.77
2022-09-12T00:40:03.452Z,94044.45
2022-09-12T00:41:06.640Z,94041.18
2022-09-12T00:42:10.761Z,94040.51
2022-09-12T00:43:33.777Z,94044.46
2022-09-12T00:44:44.778Z,94037.95
2022-09-12T00:45:48.032Z,94037.16
2022-09-12T00:46:55.103Z,94040.13
2022-09-12T00:48:03.632Z,94035.95
2022-09-12T00:49:43.151Z,94037.02
2022-09-12T00:50:46.253Z,94033.93
2022-09-12T00:51:54.877Z,94035.02
2022-09-12T00:53:06.586Z,94034.34
2022-09-12T00:54:14.575Z,94031.74
2022-09-12T00:55:28.152Z,94029.23
2022-09-12T00:56:31.550Z,94033.29
2022-09-12T00:57:59.620Z,94035.13
2022-09-12T00:59:15.544Z,94031.34
2022-09-12T01:00:22.879Z,94031.21
2022-09-12T01:01:29.220Z,94034.34
2022-09-12T01:02:38.223Z,94032.70
2022-09-12T01:03:41.969Z,94030.52
2022-09-12T01:04:45.295Z,94031.80
2022-09-12T01:06:11.379Z,94030.04
2022-09-12T01:07:15.656Z,94029.92
2022-09-12T01:08:20.062Z,94027.44
2022-09-12T01:09:24.468Z,94024.66
2022-09-12T01:10:27.611Z,94023.23
2022-09-12T01:11:34.554Z,94023.98
2022-09-12T01:12:40.991Z,94025.41
2022-09-12T01:13:45.341Z,94018.95
2022-09-12T01:14:48.360Z,94016.75
2022-09-12T01:15:51.819Z,94016.26
2022-09-12T01:16:54.892Z,94014.23
2022-09-12T01:18:04.717Z,94007.98
2022-09-12T01:19:35.635Z,94011.75
2022-09-12T01:21:27.726Z,94011.38
2022-09-12T01:23:03.617Z,94008.23
2022-09-12T01:24:09.400Z,94009.42
2022-09-12T01:25:34.131Z,94005.84
2022-09-12T01:26:52.115Z,94006.70
2022-09-12T01:28:23.499Z,94005.20
2022-09-12T01:29:35.271Z,94006.66
2022-09-12T01:30:56.228Z,94005.18
2022-09-12T01:32:33.396Z,94001.85
2022-09-12T01:34:07.016Z,94004.31
2022-09-12T01:35:23.115Z,94002.05
2022-09-12T01:36:38.624Z,94003.42
2022-09-12T01:38:08.682Z,94001.19
2022-09-12T01:39:28.141Z,94004.20
2022-09-12T01:40:45.971Z,94005.24
2022-09-12T01:42:16.129Z,94003.23
2022-09-12T01:43:40.201Z,94007.13
2022-09-12T01:44:54.278Z,94006.54
2022-09-12T01:46:12.100Z,94002.31
2022-09-12T01:47:31.306Z,94003.99
2022-09-12T01:48:40.812Z,94000.31
2022-09-12T01:49:59.705Z,93995.52
2022-09-12T01:51:13.603Z,93993.41
2022-09-12T01:52:25.302Z,93994.46
2022-09-12T01:53:36.091Z,93998.16
2022-09-12T01:54:46.498Z,93996.09
2022-09-12T01:55:56.188Z,93993.70
2022-09-12T01:57:04.276Z,93991.69
2022-09-12T01:58:20.109Z,93994.55
2022-09-12T01:59:33.512Z,93992.81
2022-09-12T02:00:55.940Z,93993.55
2022-09-12T02:02:02.086Z,93992.65
2022-09-12T02:03:21.308Z,93989.87
2022-09-12T02:04:36.866Z,93992.98
2022-09-12T02:06:03.312Z,93993.56
2022-09-12T02:07:13.412Z,93995.66
2022-09-12T02:08:48.700Z,93995.56
2022-09-12T02:10:18.059Z,93989.55
2022-09-12T02:11:21.840Z,93990.52
2022-09-12T02:12:35.170Z,93989.74
2022-09-12T02:13:43.863Z,93989.17
2022-09-12T02:14:54.119Z,93989.54
2022-09-12T02:16:08.669Z,93991.14
2022-09-12T02:17:15.122Z,93988.71
2022-09-12T02:18:19.991Z,93991.30
2022-09-12T02:19:29.767Z,93993.11
2022-09-12T02:20:48.497Z,93988.51
2022-09-12T02:21:58.379Z,93987.66
2022-09-12T02:23:03.171Z,93982.77
2022-09-12T02:24:10.600Z,93983.34
2022-09-12T02:25:18.506Z,93984.98
2022-09-12T02:26:26.150Z,93982.98
2022-09-12T02:27:44.839Z,93984.93
2022-09-12T02:28:48.220Z,93981.96
2022-09-12T02:29:52.400Z,93986.09
2022-09-12T02:31:23.451Z,93982.02
2022-09-12T02:32:31.356Z,93980.02
2022-09-12T02:33:49.425Z,93980.60
2022-09-12T02:35:00.967Z,93975.68
2022-09-12T02:36:31.950Z,93974.98
2022-09-12T02:37:53.714Z,93975.72
2022-09-12T02:38:56.860Z,93973.44
2022-09-12T02:40:01.211Z,93970.55
2022-09-12T02:41:04.520Z,93970.66
2022-09-12T02:42:08.016Z,93970.73
2022-09-12T02:43:11.479Z,93973.89
2022-09-12T02:44:14.614Z,93973.83
2022-09-12T02:45:18.550Z,93972.70
2022-09-12T02:46:33.401Z,93972.80
2022-09-12T02:47:44.677Z,93975.02
2022-09-12T02:48:48.730Z,93973.17
2022-09-12T02:49:52.805Z,93968.14
2022-09-12T02:50:56.532Z,93971.30
2022-09-12T02:52:00.133Z,93970.67
2022-09-12T02:53:05.818Z,93968.41
2022-09-12T02:54:10.241Z,93968.55
2022-09-12T02:55:15.051Z,93966.35
2022-09-12T02:56:31.773Z,93962.33
2022-09-12T02:57:34.781Z,93961.73
2022-09-12T02:58:37.966Z,93963.63
2022-09-12T02:59:41.173Z,93964.60
2022-09-12T03:00:47.168Z,93964.60
2022-09-12T03:02:28.472Z,93964.58
2022-09-12T03:03:50.346Z,93964.10
2022-09-12T03:05:22.268Z,93963.52
2022-09-12T03:06:38.077Z,93963.29
2022-09-12T03:07:49.946Z,93962.70
2022-09-12T03:09:34.586Z,93964.64
2022-09-12T03:10:53.727Z,93964.89
2022-09-12T03:12:12.118Z,93964.86
2022-09-12T03:13:34.525Z,93965.91
2022-09-12T03:15:16.197Z,93962.09
2022-09-12T03:16:25.106Z,93962.23
2022-09-12T03:17:40.217Z,93963.90
2022-09-12T03:19:22.259Z,93961.59
2022-09-12T03:21:04.691Z,93964.45
2022-09-12T03:22:28.776Z,93969.58
2022-09-12T03:23:45.760Z,93970.55
2022-09-12T03:25:00.843Z,93968.43
2022-09-12T03:26:14.192Z,93969.03
2022-09-12T03:27:28.113Z,93969.30
2022-09-12T03:28:45.730Z,93967.21
2022-09-12T03:29:50.820Z,93969.36
2022-09-12T03:30:57.063Z,93967.83
2022-09-12T03:32:00.173Z,93967.09
2022-09-12T03:33:03.249Z,93965.51
2022-09-12T03:34:06.978Z,93964.55
2022-09-12T03:35:11.087Z,93964.48
2022-09-12T03:36:22.703Z,93962.40
2022-09-12T03:37:25.781Z,93963.45
2022-09-12T03:38:29.278Z,93963.73
2022-09-12T03:39:33.005Z,93963.94
2022-09-12T03:40:37.351Z,93966.14
2022-09-12T03:41:43.262Z,93968.94
2022-09-12T03:42:46.388Z,93964.98
2022-09-12T03:43:50.770Z,93965.96
2022-09-12T03:44:53.816Z,93965.73
2022-09-12T03:45:56.977Z,93966.17
2022-09-12T03:47:00.371Z,93962.11
2022-09-12T03:48:04.818Z,93965.33
2022-09-12T03:49:07.886Z,93965.52
2022-09-12T03:50:10.951Z,93960.58
2022-09-12T03:51:14.040Z,93962.05
2022-09-12T03:52:17.168Z,93962.28
2022-09-12T03:53:20.166Z,93962.31
2022-09-12T03:54:23.441Z,93965.62
2022-09-12T03:55:26.923Z,93965.96
2022-09-12T03:56:30.735Z,93967.60
2022-09-12T03:57:33.853Z,93964.31
2022-09-12T03:58:37.163Z,93963.98
2022-09-12T03:59:40.462Z,93965.63
2022-09-12T04:00:44.476Z,93963.82
2022-09-12T04:01:47.508Z,93967.14
2022-09-12T04:02:55.286Z,93967.91
2022-09-12T04:03:58.416Z,93969.10
2022-09-12T04:05:01.632Z,93968.55
2022-09-12T04:06:07.081Z,93966.84
2022-09-12T04:07:11.687Z,93969.20
2022-09-12T04:08:15.215Z,93967.20
2022-09-12T04:09:18.330Z,93969.88
2022-09-12T04:10:21.528Z,93967.50
2022-09-12T04:11:24.860Z,93967.55
2022-09-12T04:12:29.844Z,93967.34
2022-09-12T04:13:34.775Z,93967.45
2022-09-12T04:14:37.876Z,93962.86
2022-09-12T04:15:40.927Z,93966.07
2022-09-12T04:16:44.133Z,93968.60
2022-09-12T04:17:47.181Z,93968.66
2022-09-12T04:18:50.200Z,93970.65
2022-09-12T04:19:53.310Z,93972.06
2022-09-12T04:20:56.321Z,93971.43
2022-09-12T04:21:59.718Z,93973.48
2022-09-12T04:23:02.852Z,93973.70
2022-09-12T04:24:06.088Z,93972.84
2022-09-12T04:25:09.726Z,93969.67
2022-09-12T04:26:17.566Z,93969.56
2022-09-12T04:27:20.537Z,93966.88
2022-09-12T04:28:24.413Z,93970.08
2022-09-12T04:29:28.102Z,93970.57
2022-09-12T04:30:31.321Z,93972.46
2022-09-12T04:31:34.361Z,93970.05
2022-09-12T04:32:38.070Z,93973.14
2022-09-12T04:33:44.125Z,93971.14
2022-09-12T04:34:47.266Z,93971.34
2022-09-12T04:35:50.721Z,93971.87
2022-09-12T04:36:53.937Z,93969.23
2022-09-12T04:37:57.366Z,93967.13
2022-09-12T04:39:02.655Z,93964.49
2022-09-12T04:40:06.117Z,93962.75
2022-09-12T04:41:27.349Z,93961.69
2022-09-12T04:42:30.270Z,93959.10
2022-09-12T04:43:33.242Z,93957.71
2022-09-12T04:44:36.249Z,93958.73
2022-09-12T04:45:39.373Z,93955.84
2022-09-12T04:46:45.107Z,93955.04
2022-09-12T04:47:48.935Z,93957.47
2022-09-12T04:48:56.080Z,93953.89
2022-09-12T04:50:00.133Z,93954.77
2022-09-12T04:51:18.247Z,93954.52
2022-09-12T04:52:21.292Z,93951.08
2022-09-12T04:53:24.326Z,93952.68
2022-09-12T04:54:27.428Z,93954.00
2022-09-12T04:55:30.521Z,93954.74
2022-09-12T04:56:37.055Z,93957.81
2022-09-12T04:57:40.995Z,93957.26
2022-09-12T04:58:46.537Z,93956.88
2022-09-12T04:59:50.028Z,93954.31
2022-09-12T05:00:54.495Z,93958.78
2022-09-12T05:01:57.662Z,93954.36
2022-09-12T05:03:00.790Z,93957.30
2022-09-12T05:04:04.484Z,93955.71
2022-09-12T05:05:08.550Z,93960.41
2022-09-12T05:06:15.374Z,93962.59
2022-09-12T05:07:19.597Z,93965.04
2022-09-12T05:08:22.876Z,93966.11
2022-09-12T05:09:25.924Z,93966.25
2022-09-12T05:10:29.008Z,93969.95
2022-09-12T05:12:02.737Z,93972.89
2022-09-12T05:12:59.794Z,93977.27
2022-09-12T05:14:04.171Z,93979.95
2022-09-12T05:15:07.976Z,93978.67
2022-09-12T05:16:13.874Z,93980.31
2022-09-12T05:17:17.432Z,93983.13
2022-09-12T05:18:21.591Z,93984.61
2022-09-12T05:19:24.623Z,93984.97
2022-09-12T05:20:27.778Z,93986.54
2022-09-12T05:21:36.896Z,93987.59
2022-09-12T05:22:40.024Z,93988.96
2022-09-12T05:23:43.482Z,93988.30
2022-09-12T05:24:50.676Z,93987.45
2022-09-12T05:25:56.659Z,93990.60
2022-09-12T05:26:59.960Z,93987.60
2022-09-12T05:28:03.137Z,93987.43
2022-09-12T05:29:07.342Z,93992.60
2022-09-12T05:30:18.684Z,93996.27
2022-09-12T05:31:31.544Z,93994.45
2022-09-12T05:32:35.519Z,93996.77
2022-09-12T05:33:40.688Z,93994.67
2022-09-12T05:34:43.829Z,93995.75
2022-09-12T05:35:52.510Z,93998.08
2022-09-12T05:36:55.745Z,93999.45
2022-09-12T05:37:59.179Z,94001.77
2022-09-12T05:39:02.267Z,94000.04
2022-09-12T05:40:07.876Z,94004.92
2022-09-12T05:41:17.569Z,94005.98
2022-09-12T05:42:22.059Z,94007.94
2022-09-12T05:43:25.119Z,94008.58
2022-09-12T05:44:28.507Z,94006.27
2022-09-12T05:45:32.578Z,94009.66
2022-09-12T05:46:41.648Z,94011.83
2022-09-12T05:47:47.346Z,94011.60
2022-09-12T05:48:55.611Z,94011.50
2022-09-12T05:50:00.017Z,94007.83
2022-09-12T05:51:09.090Z,94011.30
2022-09-12T05:52:12.800Z,94010.48
2022-09-12T05:53:15.944Z,94010.77
2022-09-12T05:54:20.817Z,94007.62
2022-09-12T05:55:24.608Z,94012.73
2022-09-12T05:56:33.402Z,94009.31
2022-09-12T05:57:36.632Z,94009.00
2022-09-12T05:58:42.729Z,94013.17
2022-09-12T05:59:46.206Z,94010.19
2022-09-12T06:00:51.687Z,94011.75
2022-09-12T06:01:54.923Z,94011.39
2022-09-12T06:02:58.056Z,94012.14
2022-09-12T06:04:04.791Z,94011.99
2022-09-12T06:05:08.229Z,94009.16
2022-09-12T06:06:15.358Z,94009.55
2022-09-12T06:07:18.486Z,94006.35
2022-09-12T06:08:21.598Z,94004.85
2022-09-12T06:09:25.862Z,94000.47
2022-09-12T06:10:29.010Z,93999.19
2022-09-12T06:11:35.035Z,94002.16
2022-09-12T06:12:38.250Z,94002.41
2022-09-12T06:13:44.505Z,94002.40
2022-09-12T06:14:48.049Z,94004.71
2022-09-12T06:15:51.505Z,94006.00
2022-09-12T06:16:54.802Z,94005.02
2022-09-12T06:17:57.933Z,94005.39
2022-09-12T06:19:07.373Z,94008.70
2022-09-12T06:20:10.507Z,94005.50
2022-09-12T06:21:14.212Z,94008.09
2022-09-12T06:22:19.057Z,94008.25
2022-09-12T06:23:22.354Z,94010.41
2022-09-12T06:24:25.320Z,94005.94
2022-09-12T06:25:31.416Z,94002.94
2022-09-12T06:26:34.975Z,94005.87
2022-09-12T06:27:38.928Z,94004.82
2022-09-12T06:28:43.286Z,94005.58
2022-09-12T06:29:46.387Z,94006.23
2022-09-12T06:30:49.598Z,94008.77
2022-09-12T06:31:52.821Z,94009.23
2022-09-12T06:32:57.104Z,94009.23
2022-09-12T06:34:02.631Z,94013.27
2022-09-12T06:35:07.607Z,94012.65
2022-09-12T06:36:26.554Z,94015.34
2022-09-12T06:37:29.856Z,94010.23
2022-09-12T06:38:33.560Z,94010.95
2022-09-12T06:39:38.609Z,94008.42
2022-09-12T06:40:46.556Z,94008.83
2022-09-12T06:41:51.616Z,94008.17
2022-09-12T06:42:54.814Z,94008.79
2022-09-12T06:43:58.856Z,94006.29
2022-09-12T06:45:01.854Z,94008.91
2022-09-12T06:46:05.196Z,94006.66
2022-09-12T06:47:08.707Z,94005.38
2022-09-12T06:48:11.744Z,94005.83
2022-09-12T06:49:15.598Z,94001.45
2022-09-12T06:50:18.666Z,94002.91
2022-09-12T06:51:21.917Z,94003.98
2022-09-12T06:52:25.170Z,94002.31
2022-09-12T06:53:30.337Z,94001.59
2022-09-12T06:54:34.004Z,94004.52
2022-09-12T06:55:36.967Z,94007.50
2022-09-12T06:56:40.035Z,94007.45
2022-09-12T06:57:44.258Z,94005.48
2022-09-12T06:58:49.137Z,94008.45
2022-09-12T06:59:52.141Z,94011.92
2022-09-12T07:01:09.769Z,94012.80
2022-09-12T07:02:13.109Z,94008.17
2022-09-12T07:03:16.182Z,94007.26
2022-09-12T07:04:20.571Z,94009.27
2022-09-12T07:05:23.663Z,94007.64
2022-09-12T07:06:34.444Z,94007.99
2022-09-12T07:07:38.217Z,94008.67
2022-09-12T07:08:41.366Z,94008.31
2022-09-12T07:09:44.802Z,94010.77
2022-09-12T07:10:47.920Z,94007.63
2022-09-12T07:11:51.031Z,94007.42
2022-09-12T07:12:55.301Z,94007.24
2022-09-12T07:14:00.143Z,94010.17
2022-09-12T07:15:05.680Z,94010.10
2022-09-12T07:16:10.283Z,94013.16
2022-09-12T07:17:13.510Z,94012.84
2022-09-12T07:18:16.565Z,94013.40
2022-09-12T07:19:19.548Z,94010.99
2022-09-12T07:20:23.400Z,94013.66
2022-09-12T07:21:27.104Z,94015.98
2022-09-12T07:22:30.246Z,94016.15
2022-09-12T07:23:33.414Z,94015.77
2022-09-12T07:24:37.427Z,94013.59
2022-09-12T07:25:40.400Z,94017.71
2022-09-12T07:26:44.220Z,94015.12
2022-09-12T07:27:51.012Z,94012.48
2022-09-12T07:29:03.951Z,94014.93
2022-09-12T07:30:17.900Z,94012.42
2022-09-12T07:31:25.728Z,94011.98
2022-09-12T07:32:28.758Z,94012.08
2022-09-12T07:33:32.620Z,94014.08
2022-09-12T07:34:35.942Z,94015.70
2022-09-12T07:35:39.375Z,94016.66
2022-09-12T07:36:42.423Z,94017.37
2022-09-12T07:37:45.800Z,94011.98
2022-09-12T07:38:48.962Z,94013.84
2022-09-12T07:39:52.791Z,94011.02
2022-09-12T07:40:55.756Z,94011.27
2022-09-12T07:41:58.846Z,94012.77
2022-09-12T07:43:03.376Z,94007.77
2022-09-12T07:44:09.569Z,94005.80
2022-09-12T07:45:13.089Z,94004.21
2022-09-12T07:46:16.849Z,94004.95
2022-09-12T07:47:19.860Z,94005.75
2022-09-12T07:48:23.390Z,94001.56
2022-09-12T07:49:30.669Z,94002.80
2022-09-12T07:50:33.711Z,94005.41
2022-09-12T07:51:36.802Z,94003.34
2022-09-12T07:52:40.022Z,94004.98
2022-09-12T07:53:43.582Z,94003.48
2022-09-12T07:54:46.558Z,94001.04
2022-09-12T07:55:56.772Z,94000.91
2022-09-12T07:56:59.938Z,94003.09
2022-09-12T07:58:03.885Z,94003.09
2022-09-12T07:59:08.260Z,94001.20
2022-09-12T08:00:11.645Z,94001.11
2022-09-12T08:01:20.659Z,94001.92
2022-09-12T08:02:23.714Z,94007.31
2022-09-12T08:03:26.748Z,94003.70
2022-09-12T08:04:30.694Z,94003.11
2022-09-12T08:05:33.634Z,94006.59
2022-09-12T08:06:37.137Z,94004.36
2022-09-12T08:07:40.271Z,94008.80
2022-09-12T08:08:44.082Z,94005.41
2022-09-12T08:09:47.619Z,94006.06
2022-09-12T08:10:57.732Z,94007.31
2022-09-12T08:12:01.026Z,94005.54
2022-09-12T08:13:04.198Z,94009.34
2022-09-12T08:14:07.263Z,94004.94
2022-09-12T08:15:10.550Z,94006.54
2022-09-12T08:16:22.227Z,94006.45
2022-09-12T08:17:25.972Z,94010.42
2022-09-12T08:18:30.210Z,94008.14
2022-09-12T08:19:33.205Z,94008.01
2022-09-12T08:20:37.408Z,94008.02
2022-09-12T08:21:40.389Z,94008.14
2022-09-12T08:22:43.589Z,94008.94
2022-09-12T08:23:47.599Z,94007.56
2022-09-12T08:24:51.180Z,94011.09
2022-09-12T08:25:57.437Z,94009.02
2022-09-12T08:27:00.430Z,94010.66
2022-09-12T08:28:03.600Z,94005.53
2022-09-12T08:29:09.477Z,94006.45
2022-09-12T08:30:13.744Z,94006.93
2022-09-12T08:31:19.298Z,94008.23
2022-09-12T08:32:22.281Z,94009.02
2022-09-12T08:33:27.490Z,94010.25
2022-09-12T08:34:30.605Z,94010.13
2022-09-12T08:35:36.592Z,94004.14
2022-09-12T08:36:39.988Z,94008.48
2022-09-12T08:37:43.090Z,94008.81
2022-09-12T08:38:48.161Z,94006.13
2022-09-12T08:39:53.212Z,94009.20
2022-09-12T08:41:18.231Z,94003.68
2022-09-12T08:42:45.797Z,94003.24
2022-09-12T08:44:10.459Z,94004.79
2022-09-12T08:45:23.018Z,94004.70
2022-09-12T08:46:33.738Z,94004.13
2022-09-12T08:47:41.738Z,93998.10
2022-09-12T08:48:46.981Z,93999.48
2022-09-12T08:50:08.362Z,93999.23
2022-09-12T08:51:14.240Z,94003.91
2022-09-12T08:52:48.584Z,94003.84
2022-09-12T08:53:56.585Z,94001.66
2022-09-12T08:55:01.165Z,94001.30
2022-09-12T08:56:08.596Z,94000.17
2022-09-12T08:57:13.070Z,94000.52
2022-09-12T08:58:24.598Z,93998.96
2022-09-12T08:59:38.328Z,94000.88
2022-09-12T09:01:07.593Z,93999.94
2022-09-12T09:02:48.754Z,93999.92
2022-09-12T09:04:10.785Z,94001.12
2022-09-12T09:05:20.565Z,94001.33
2022-09-12T09:06:44.361Z,93999.06
2022-09-12T09:08:15.826Z,93997.67
2022-09-12T09:09:36.914Z,93998.17
2022-09-12T09:11:01.014Z,93996.83
2022-09-12T09:12:07.219Z,93998.60
2022-09-12T09:13:13.470Z,93999.05
2022-09-12T09:14:48.913Z,94001.23
2022-09-12T09:16:03.028Z,93998.09
2022-09-12T09:17:34.112Z,93997.48
2022-09-12T09:18:38.476Z,93996.86
2022-09-12T09:19:50.798Z,93997.78
2022-09-12T09:21:03.656Z,93995.55
2022-09-12T09:22:37.596Z,93996.09
2022-09-12T09:23:45.023Z,93996.08
2022-09-12T09:25:04.803Z,93994.14
2022-09-12T09:26:27.830Z,93993.21
2022-09-12T09:27:57.726Z,93988.70
2022-09-12T09:29:12.388Z,93991.91
2022-09-12T09:30:19.078Z,93990.17
2022-09-12T09:31:28.653Z,93994.86
2022-09-12T09:32:38.381Z,93996.25
2022-09-12T09:33:41.619Z,93994.48
2022-09-12T09:34:46.474Z,93995.17
2022-09-12T09:36:10.940Z,93994.92
2022-09-12T09:37:21.049Z,93995.14
2022-09-12T09:38:34.948Z,93994.02
2022-09-12T09:40:19.784Z,93993.88
2022-09-12T09:41:31.347Z,93991.80
2022-09-12T09:42:47.159Z,93990.67
2022-09-12T09:43:50.472Z,93992.95
2022-09-12T09:44:56.513Z,93995.78
2022-09-12T09:46:00.775Z,93990.84
2022-09-12T09:47:04.121Z,93987.54
2022-09-12T09:48:19.655Z,93987.02
2022-09-12T09:49:23.831Z,93987.11
2022-09-12T09:50:27.157Z,93987.75
2022-09-12T09:51:36.520Z,93982.02
2022-09-12T09:52:40.483Z,93980.70
2022-09-12T09:53:47.097Z,93978.83
2022-09-12T09:54:55.428Z,93978.94
2022-09-12T09:56:03.780Z,93982.39
2022-09-12T09:57:36.045Z,93982.19
2022-09-12T09:58:40.463Z,93977.93
2022-09-12T09:59:43.482Z,93978.46
2022-09-12T10:00:47.995Z,93979.92
2022-09-12T10:02:04.045Z,93976.61
2022-09-12T10:03:13.735Z,93974.92
2022-09-12T10:04:29.609Z,93975.17
2022-09-12T10:05:36.097Z,93976.75
2022-09-12T10:06:40.350Z,93974.35
2022-09-12T10:07:50.944Z,93971.94
2022-09-12T10:09:24.539Z,93973.46
2022-09-12T10:10:27.831Z,93973.58
2022-09-12T10:11:32.964Z,93968.52
2022-09-12T10:12:39.249Z,93968.90
2022-09-12T10:13:54.755Z,93968.09
2022-09-12T10:15:02.685Z,93969.82
2022-09-12T10:16:19.488Z,93975.61
2022-09-12T10:17:34.196Z,93979.10
2022-09-12T10:18:42.647Z,93978.08
2022-09-12T10:19:52.695Z,93978.42
2022-09-12T10:21:50.945Z,93978.55
2022-09-12T10:22:54.131Z,93976.73
2022-09-12T10:24:17.092Z,93972.57
2022-09-12T10:25:21.531Z,93971.39
2022-09-12T10:26:33.388Z,93973.78
2022-09-12T10:27:36.946Z,93974.73
2022-09-12T10:28:43.895Z,93973.79
2022-09-12T10:30:21.859Z,93970.69
2022-09-12T10:31:43.365Z,93968.47
2022-09-12T10:32:52.233Z,93968.36
2022-09-12T10:34:28.345Z,93963.52
2022-09-12T10:35:44.048Z,93962.39
2022-09-12T10:36:54.521Z,93959.10
2022-09-12T10:38:02.566Z,93964.55
2022-09-12T10:39:07.182Z,93966.39
2022-09-12T10:40:24.159Z,93969.11
2022-09-12T10:41:37.560Z,93969.37
2022-09-12T10:42:51.025Z,93971.70
2022-09-12T10:44:07.269Z,93972.48
2022-09-12T10:45:22.905Z,93972.91
2022-09-12T10:46:31.570Z,93975.09
2022-09-12T10:47:34.780Z,93976.95
2022-09-12T10:48:38.996Z,93970.11
2022-09-12T10:49:42.031Z,93971.14
2022-09-12T10:50:45.058Z,93971.66
2022-09-12T10:51:49.164Z,93972.20
2022-09-12T10:52:53.014Z,93971.93
2022-09-12T10:54:00.113Z,93970.45
2022-09-12T10:55:03.400Z,93971.86
2022-09-12T10:56:33.848Z,93971.92
2022-09-12T10:57:39.643Z,93974.62
2022-09-12T10:58:51.433Z,93969.98
2022-09-12T11:00:18.074Z,93971.73
2022-09-12T11:01:47.394Z,93974.94
2022-09-12T11:03:16.281Z,93977.95
2022-09-12T11:05:07.596Z,93976.15
2022-09-12T11:06:16.896Z,93978.63
2022-09-12T11:08:02.812Z,93973.42
2022-09-12T11:09:27.637Z,93973.02
2022-09-12T11:11:00.417Z,93971.20
2022-09-12T11:12:20.268Z,93970.54
2022-09-12T11:13:37.376Z,93970.09
2022-09-12T11:15:00.855Z,93970.52
2022-09-12T11:16:35.030Z,93964.59
2022-09-12T11:17:52.213Z,93965.23
2022-09-12T11:19:10.049Z,93962.60
2022-09-12T11:20:21.965Z,93964.96
2022-09-12T11:21:27.728Z,93961.48
2022-09-12T11:23:11.984Z,93963.17
2022-09-12T11:24:29.499Z,93965.80
2022-09-12T11:25:46.369Z,93960.56
2022-09-12T11:26:54.981Z,93965.12
2022-09-12T11:28:17.558Z,93964.05
2022-09-12T11:29:41.328Z,93961.82
2022-09-12T11:31:08.218Z,93966.89
2022-09-12T11:32:42.081Z,93964.42
2022-09-12T11:33:53.935Z,93966.20
2022-09-12T11:35:25.396Z,93965.87
2022-09-12T11:36:40.624Z,93967.25
2022-09-12T11:37:49.771Z,93967.41
2022-09-12T11:39:02.360Z,93961.99
2022-09-12T11:40:34.318Z,93964.26
2022-09-12T11:41:41.895Z,93964.34
2022-09-12T11:42:47.793Z,93966.41
2022-09-12T11:43:51.999Z,93967.95
2022-09-12T11:45:13.184Z,93966.13
2022-09-12T11:46:18.868Z,93968.27
2022-09-12T11:47:25.781Z,93969.67
2022-09-12T11:48:59.533Z,93966.88
2022-09-12T11:50:16.189Z,93964.69
2022-09-12T11:51:24.087Z,93966.29
2022-09-12T11:52:39.040Z,93964.39
2022-09-12T11:53:45.511Z,93968.63
2022-09-12T11:55:09.472Z,93966.88
2022-09-12T11:56:18.319Z,93964.23
2022-09-12T11:57:25.552Z,93959.20
2022-09-12T11:58:31.773Z,93956.58
2022-09-12T11:59:45.861Z,93958.32
2022-09-12T12:00:53.489Z,93956.75
2022-09-12T12:02:00.136Z,93957.45
2022-09-12T12:03:10.734Z,93956.77
2022-09-12T12:04:19.029Z,93953.52
2022-09-12T12:05:27.201Z,93951.48
2022-09-12T12:06:52.973Z,93952.29
2022-09-12T12:07:59.011Z,93952.00
2022-09-12T12:09:04.694Z,93946.06
2022-09-12T12:10:24.471Z,93949.30
2022-09-12T12:11:35.922Z,93947.31
2022-09-12T12:12:39.194Z,93949.52
2022-09-12T12:13:51.294Z,93946.78
2022-09-12T12:14:59.541Z,93947.14
2022-09-12T12:16:05.548Z,93950.14
2022-09-12T12:17:20.102Z,93949.20
2022-09-12T12:18:26.116Z,93947.20
2022-09-12T12:19:38.187Z,93947.17
2022-09-12T12:20:41.730Z,93948.84
2022-09-12T12:21:47.664Z,93949.77
2022-09-12T12:22:57.044Z,93946.81
2022-09-12T12:24:09.285Z,93951.11
2022-09-12T12:25:12.530Z,93944.06
2022-09-12T12:26:40.302Z,93947.34
2022-09-12T12:27:53.805Z,93946.00
2022-09-12T12:28:59.586Z,93942.21
2022-09-12T12:30:02.842Z,93945.31
2022-09-12T12:31:06.021Z,93945.91
2022-09-12T12:32:11.729Z,93947.87
2022-09-12T12:33:14.843Z,93945.73
2022-09-12T12:34:28.145Z,93944.41
2022-09-12T12:35:56.890Z,93944.23
2022-09-12T12:37:19.409Z,93939.16
2022-09-12T12:38:32.645Z,93938.75
2022-09-12T12:39:41.433Z,93939.18
2022-09-12T12:40:44.572Z,93936.64
2022-09-12T12:41:47.711Z,93934.73
2022-09-12T12:43:04.758Z,93932.72
2022-09-12T12:44:48.686Z,93931.90
2022-09-12T12:46:09.707Z,93930.64
2022-09-12T12:47:36.787Z,93932.05
2022-09-12T12:49:19.020Z,93931.60
2022-09-12T12:50:27.485Z,93930.84
2022-09-12T12:51:44.361Z,93932.59
2022-09-12T12:52:47.429Z,93930.11
2022-09-12T12:53:52.361Z,93934.91
2022-09-12T12:55:03.561Z,93932.93
2022-09-12T12:56:44.094Z,93929.35
2022-09-12T12:57:55.842Z,93926.94
2022-09-12T12:59:02.639Z,93928.55
2022-09-12T13:00:30.851Z,93925.16
2022-09-12T13:01:41.179Z,93923.92
2022-09-12T13:02:56.391Z,93921.21
2022-09-12T13:04:01.678Z,93921.40
2022-09-12T13:05:16.736Z,93919.56
2022-09-12T13:06:37.848Z,93916.59
2022-09-12T13:07:41.139Z,93917.15
2022-09-12T13:09:00.157Z,93915.89
2022-09-12T13:10:05.830Z,93919.02
2022-09-12T13:11:14.753Z,93921.06
2022-09-12T13:12:37.178Z,93920.69
2022-09-12T13:13:52.566Z,93919.02
2022-09-12T13:15:00.618Z,93919.20
2022-09-12T13:16:04.039Z,93920.44
2022-09-12T13:17:08.691Z,93924.14
2022-09-12T13:18:42.694Z,93920.59
2022-09-12T13:19:47.498Z,93919.08
2022-09-12T13:21:04.361Z,93916.02
2022-09-12T13:22:10.756Z,93919.06
2022-09-12T13:23:31.867Z,93920.08
2022-09-12T13:24:44.887Z,93919.62
2022-09-12T13:25:54.737Z,93920.72
2022-09-12T13:26:59.060Z,93920.89
2022-09-12T13:28:20.527Z,93920.35
2022-09-12T13:29:26.213Z,93915.85
2022-09-12T13:30:35.168Z,93918.27
2022-09-12T13:31:39.515Z,93915.04
2022-09-12T13:32:47.298Z,93916.09
2022-09-12T13:33:55.235Z,93913.63
2022-09-12T13:35:23.231Z,93915.82
2022-09-12T13:36:40.573Z,93914.05
2022-09-12T13:37:57.163Z,93910.41
2022-09-12T13:39:50.102Z,93909.92
2022-09-12T13:41:19.191Z,93907.14